Hull, Wisconsin
Current Conditions -  °F | °C
As of 7:35 PM on Sunday 23 Nov 2014 (Local Time) from KSTE Reporting Station
Moderate Fog Moderate Fog  
Wind Chill: 43°   Ceiling: 200
Heat Index: 43°   Visibility: 0.25mi
Dew Point: 43°   Wind: 3mph
Humidity: 100%   Direction: 80°E
Pressure: 29.31"   Gusts: NA
Location:  44.5531°N, 89.5186°W
Report Text: KSTE 240135Z AUTO 08003KT 1/4SM FG OVC002 06/06 A2931 RMK AO2 T00600060
Loading
Personal Weather Stations






























Interactive Weather Map New forecast layout! Learn more

10-Day Weather Forecast

Advertisements
Track Severe Weather on mobile